Observation data for Abernathy on 10/18/2019      Previous  Date       Current Mesonet Observations  Soil Data  Daily Summary Page  Observations in Plain Language
KARS 180500Z 17012KT 15/06 A2986 RMK A01 T01540057  RH  054%=      5-min Rain = 0
KARS 180505Z 17012KT 15/06 A2986 RMK A01 T01530057  RH  054%=      5-min Rain = 0
KARS 180510Z 17012G17KT 15/06 A2986 RMK A01 T01530055  RH  053%=      5-min Rain = 0
KARS 180515Z 17012KT 15/05 A2986 RMK A01 T01530054  RH  053%=      5-min Rain = 0
KARS 180520Z 17012G17KT 15/05 A2986 RMK A01 T01530052  RH  052%=      5-min Rain = 0
KARS 180525Z 17014KT 15/05 A2986 RMK A01 T01540050  RH  051%=      5-min Rain = 0
KARS 180530Z 17013KT 15/05 A2986 RMK A01 T01540049  RH  050%=      5-min Rain = 0
KARS 180535Z 17012KT 15/05 A2986 RMK A01 T01530048  RH  050%=      5-min Rain = 0
KARS 180540Z 17012KT 15/05 A2986 RMK A01 T01520047  RH  051%=      5-min Rain = 0
KARS 180545Z 17012KT 15/05 A2986 RMK A01 T01500046  RH  051%=      5-min Rain = 0
KARS 180550Z 17012G17KT 15/05 A2986 RMK A01 T01500045  RH  051%=      5-min Rain = 0
KARS 180555Z 17012KT 15/05 A2986 RMK A01 T01490045  RH  051%=      5-min Rain = 0
KARS 180600Z 17012KT 15/04 A2986 RMK A01 T01480043  RH  050%=      5-min Rain = 0
KARS 180605Z 17013KT 15/04 A2986 RMK A01 T01480042  RH  050%=      5-min Rain = 0
KARS 180610Z 17012KT 15/04 A2986 RMK A01 T01480042  RH  050%=      5-min Rain = 0
KARS 180615Z 18013KT 15/04 A2986 RMK A01 T01460041  RH  050%=      5-min Rain = 0
KARS 180620Z 17012KT 15/04 A2986 RMK A01 T01450041  RH  051%=      5-min Rain = 0
KARS 180625Z 18012KT 14/04 A2986 RMK A01 T01440041  RH  051%=      5-min Rain = 0
KARS 180630Z 17012KT 14/04 A2986 RMK A01 T01430041  RH  051%=      5-min Rain = 0
KARS 180635Z 18010KT 14/04 A2986 RMK A01 T01400042  RH  053%=      5-min Rain = 0
KARS 180640Z 17010KT 14/04 A2986 RMK A01 T01390042  RH  053%=      5-min Rain = 0
KARS 180645Z 17010KT 14/04 A2986 RMK A01 T01370042  RH  054%=      5-min Rain = 0
KARS 180650Z 17010KT 14/04 A2986 RMK A01 T01350043  RH  055%=      5-min Rain = 0
KARS 180655Z 17009KT 13/04 A2985 RMK A01 T01330043  RH  056%=      5-min Rain = 0
KARS 180700Z 17010KT 13/04 A2985 RMK A01 T01320043  RH  056%=      5-min Rain = 0
KARS 180705Z 17010KT 13/04 A2985 RMK A01 T01310043  RH  056%=      5-min Rain = 0
KARS 180710Z 17009KT 13/04 A2985 RMK A01 T01300043  RH  056%=      5-min Rain = 0
KARS 180715Z 17009KT 13/04 A2985 RMK A01 T01290043  RH  057%=      5-min Rain = 0
KARS 180720Z 17008KT 13/04 A2985 RMK A01 T01280043  RH  057%=      5-min Rain = 0
KARS 180725Z 17009KT 13/04 A2985 RMK A01 T01260043  RH  058%=      5-min Rain = 0
KARS 180730Z 17009KT 13/04 A2985 RMK A01 T01250043  RH  059%=      5-min Rain = 0
KARS 180735Z 17009KT 12/04 A2985 RMK A01 T01240043  RH  059%=      5-min Rain = 0
KARS 180740Z 17009KT 13/04 A2985 RMK A01 T01250042  RH  058%=      5-min Rain = 0
KARS 180745Z 16009KT 13/04 A2985 RMK A01 T01250041  RH  058%=      5-min Rain = 0
KARS 180750Z 17010KT 13/04 A2985 RMK A01 T01250042  RH  058%=      5-min Rain = 0
KARS 180755Z 17009KT 12/04 A2985 RMK A01 T01240042  RH  058%=      5-min Rain = 0
KARS 180800Z 17009KT 12/04 A2985 RMK A01 T01230042  RH  059%=      5-min Rain = 0
KARS 180805Z 16009KT 12/04 A2984 RMK A01 T01220043  RH  059%=      5-min Rain = 0
KARS 180810Z 17009KT 12/04 A2984 RMK A01 T01220043  RH  060%=      5-min Rain = 0
KARS 180815Z 17009KT 12/04 A2984 RMK A01 T01210044  RH  060%=      5-min Rain = 0
KARS 180820Z 17009KT 12/04 A2984 RMK A01 T01190044  RH  061%=      5-min Rain = 0
KARS 180825Z 17009KT 12/04 A2984 RMK A01 T01190044  RH  062%=      5-min Rain = 0
KARS 180830Z 17008KT 12/05 A2984 RMK A01 T01180045  RH  062%=      5-min Rain = 0
KARS 180835Z 17008KT 12/05 A2984 RMK A01 T01160046  RH  063%=      5-min Rain = 0
KARS 180840Z 17007KT 12/05 A2984 RMK A01 T01150046  RH  064%=      5-min Rain = 0
KARS 180845Z 17008KT 11/05 A2983 RMK A01 T01140047  RH  065%=      5-min Rain = 0
KARS 180850Z 18007KT 11/05 A2983 RMK A01 T01140047  RH  065%=      5-min Rain = 0
KARS 180855Z 18007KT 11/05 A2983 RMK A01 T01120047  RH  066%=      5-min Rain = 0
KARS 180900Z 18007KT 11/05 A2983 RMK A01 T01100048  RH  067%=      5-min Rain = 0
KARS 180905Z 18007KT 11/05 A2983 RMK A01 T01070048  RH  068%=      5-min Rain = 0
KARS 180910Z 17007KT 11/05 A2983 RMK A01 T01060048  RH  069%=      5-min Rain = 0
KARS 180915Z 18007KT 11/05 A2983 RMK A01 T01050049  RH  070%=      5-min Rain = 0
KARS 180920Z 18008KT 10/05 A2982 RMK A01 T01040050  RH  071%=      5-min Rain = 0
KARS 180925Z 18008KT 10/05 A2982 RMK A01 T01030051  RH  071%=      5-min Rain = 0
KARS 180930Z 18008KT 11/05 A2982 RMK A01 T01050052  RH  072%=      5-min Rain = 0
KARS 180935Z 18009KT 11/05 A2981 RMK A01 T01060053  RH  072%=      5-min Rain = 0
KARS 180940Z 18009KT 11/06 A2981 RMK A01 T01060055  RH  072%=      5-min Rain = 0
KARS 180945Z 19009KT 11/06 A2981 RMK A01 T01050057  RH  074%=      5-min Rain = 0
KARS 180950Z 19008KT 11/06 A2981 RMK A01 T01050058  RH  074%=      5-min Rain = 0
KARS 180955Z 19009KT 11/06 A2982 RMK A01 T01070059  RH  074%=      5-min Rain = 0
KARS 181000Z 19009KT 11/06 A2982 RMK A01 T01080060  RH  074%=      5-min Rain = 0
KARS 181005Z 19009KT 11/06 A2982 RMK A01 T01070061  RH  075%=      5-min Rain = 0
KARS 181010Z 19008KT 11/06 A2982 RMK A01 T01080064  RH  076%=      5-min Rain = 0
KARS 181015Z 19008KT 11/07 A2982 RMK A01 T01080065  RH  076%=      5-min Rain = 0
KARS 181020Z 19008KT 11/07 A2982 RMK A01 T01070065  RH  077%=      5-min Rain = 0
KARS 181025Z 19009KT 11/07 A2982 RMK A01 T01060066  RH  078%=      5-min Rain = 0
KARS 181030Z 20009KT 11/07 A2982 RMK A01 T01060068  RH  079%=      5-min Rain = 0
KARS 181035Z 19009KT 11/07 A2982 RMK A01 T01060070  RH  080%=      5-min Rain = 0
KARS 181040Z 19009KT 11/07 A2981 RMK A01 T01070071  RH  081%=      5-min Rain = 0
KARS 181045Z 19009KT 11/07 A2981 RMK A01 T01070072  RH  081%=      5-min Rain = 0
KARS 181050Z 20009KT 11/07 A2982 RMK A01 T01060073  RH  082%=      5-min Rain = 0
KARS 181055Z 20008KT 11/07 A2982 RMK A01 T01050074  RH  083%=      5-min Rain = 0
KARS 181100Z 20008KT 10/08 A2982 RMK A01 T01040075  RH  084%=      5-min Rain = 0
KARS 181105Z 19008KT 10/08 A2982 RMK A01 T01040075  RH  085%=      5-min Rain = 0
KARS 181110Z 20008KT 10/07 A2982 RMK A01 T01020074  RH  085%=      5-min Rain = 0
KARS 181115Z 20008KT 10/07 A2982 RMK A01 T01010074  RH  086%=      5-min Rain = 0
KARS 181120Z 20008KT 10/08 A2982 RMK A01 T01000076  RH  087%=      5-min Rain = 0
KARS 181125Z 20008KT 10/08 A2981 RMK A01 T01000077  RH  088%=      5-min Rain = 0
KARS 181130Z 20008KT 10/08 A2982 RMK A01 T01000078  RH  088%=      5-min Rain = 0
KARS 181135Z 20008KT 10/08 A2982 RMK A01 T01020079  RH  088%=      5-min Rain = 0
KARS 181140Z 20007KT 10/08 A2982 RMK A01 T01030081  RH  089%=      5-min Rain = 0
KARS 181145Z 20007KT 10/08 A2982 RMK A01 T01030082  RH  089%=      5-min Rain = 0
KARS 181150Z 20007KT 10/08 A2982 RMK A01 T01040082  RH  089%=      5-min Rain = 0
KARS 181155Z 19007KT 10/08 A2981 RMK A01 T01030082  RH  089%=      5-min Rain = 0
KARS 181200Z 19007KT 10/08 A2981 RMK A01 T01030082  RH  089%=      5-min Rain = 0
KARS 181205Z 19007KT 10/08 A2981 RMK A01 T01030083  RH  090%=      5-min Rain = 0
KARS 181210Z 20008KT 10/08 A2982 RMK A01 T01040083  RH  090%=      5-min Rain = 0
KARS 181215Z 19008KT 10/08 A2981 RMK A01 T01030083  RH  090%=      5-min Rain = 0
KARS 181220Z 19008KT 11/09 A2981 RMK A01 T01050085  RH  090%=      5-min Rain = 0
KARS 181225Z 19008KT 11/09 A2981 RMK A01 T01070086  RH  090%=      5-min Rain = 0
KARS 181230Z 19007KT 11/09 A2981 RMK A01 T01070086  RH  089%=      5-min Rain = 0
KARS 181235Z 19007KT 11/09 A2981 RMK A01 T01070086  RH  090%=      5-min Rain = 0
KARS 181240Z 19007KT 11/09 A2981 RMK A01 T01070086  RH  090%=      5-min Rain = 0
KARS 181245Z 19007KT 11/09 A2981 RMK A01 T01070087  RH  090%=      5-min Rain = 0
KARS 181250Z 19007KT 11/09 A2981 RMK A01 T01080088  RH  090%=      5-min Rain = 0
KARS 181255Z 19007KT 11/09 A2981 RMK A01 T01110089  RH  089%=      5-min Rain = 0
KARS 181300Z 20007KT 11/09 A2981 RMK A01 T01130090  RH  088%=      5-min Rain = 0
KARS 181305Z 20008KT 11/09 A2981 RMK A01 T01140090  RH  088%=      5-min Rain = 0
KARS 181310Z 19007KT 12/09 A2981 RMK A01 T01150091  RH  088%=      5-min Rain = 0
KARS 181315Z 19007KT 12/09 A2981 RMK A01 T01160091  RH  088%=      5-min Rain = 0
KARS 181320Z 20007KT 12/09 A2981 RMK A01 T01180092  RH  087%=      5-min Rain = 0
KARS 181325Z 20008KT 12/09 A2981 RMK A01 T01210094  RH  086%=      5-min Rain = 0
KARS 181330Z 20009KT 13/10 A2981 RMK A01 T01250095  RH  085%=      5-min Rain = 0
KARS 181335Z 20009KT 13/10 A2981 RMK A01 T01290096  RH  083%=      5-min Rain = 0
KARS 181340Z 20009KT 13/10 A2981 RMK A01 T01320097  RH  082%=      5-min Rain = 0
KARS 181345Z 20009KT 13/10 A2981 RMK A01 T01340097  RH  081%=      5-min Rain = 0
KARS 181350Z 20009KT 14/10 A2981 RMK A01 T01370097  RH  079%=      5-min Rain = 0
KARS 181355Z 20009KT 14/10 A2981 RMK A01 T01400098  RH  078%=      5-min Rain = 0
KARS 181400Z 19010KT 14/10 A2981 RMK A01 T01430097  RH  077%=      5-min Rain = 0
KARS 181405Z 19011KT 15/10 A2981 RMK A01 T01450097  RH  075%=      5-min Rain = 0
KARS 181410Z 19011KT 15/10 A2981 RMK A01 T01480097  RH  074%=      5-min Rain = 0
KARS 181415Z 19013KT 15/10 A2981 RMK A01 T01510097  RH  072%=      5-min Rain = 0
KARS 181420Z 20013KT 15/10 A2981 RMK A01 T01530097  RH  071%=      5-min Rain = 0
KARS 181425Z 20014KT 16/10 A2981 RMK A01 T01550097  RH  070%=      5-min Rain = 0
KARS 181430Z 20016KT 16/10 A2981 RMK A01 T01560095  RH  069%=      5-min Rain = 0
KARS 181435Z 20015KT 16/10 A2981 RMK A01 T01580096  RH  069%=      5-min Rain = 0
KARS 181440Z 20015KT 16/10 A2981 RMK A01 T01590096  RH  068%=      5-min Rain = 0
KARS 181445Z 20015KT 16/10 A2981 RMK A01 T01620096  RH  067%=      5-min Rain = 0
KARS 181450Z 20014KT 16/10 A2981 RMK A01 T01640096  RH  066%=      5-min Rain = 0
KARS 181455Z 20013KT 17/10 A2981 RMK A01 T01680097  RH  065%=      5-min Rain = 0
KARS 181500Z 19014KT 17/10 A2981 RMK A01 T01700097  RH  064%=      5-min Rain = 0
KARS 181505Z 19015KT 17/10 A298 RMK A01 T01710096  RH  063%=      5-min Rain = 0
KARS 181510Z 20015KT 17/10 A298 RMK A01 T01730096  RH  063%=      5-min Rain = 0
KARS 181515Z 20014KT 17/10 A298 RMK A01 T01740096  RH  062%=      5-min Rain = 0
KARS 181520Z 20014KT 18/10 A298 RMK A01 T01770097  RH  062%=      5-min Rain = 0
KARS 181525Z 19013KT 18/10 A298 RMK A01 T01820099  RH  060%=      5-min Rain = 0
KARS 181530Z 20014KT 19/10 A298 RMK A01 T01850099  RH  059%=      5-min Rain = 0
KARS 181535Z 20012KT 19/10 A298 RMK A01 T01890100  RH  058%=      5-min Rain = 0
KARS 181540Z 21014KT 20/10 A298 RMK A01 T01950100  RH  056%=      5-min Rain = 0
KARS 181545Z 21013KT 19/10 A298 RMK A01 T01890097  RH  057%=      5-min Rain = 0
KARS 181550Z 21013KT 19/10 A298 RMK A01 T01850096  RH  058%=      5-min Rain = 0
KARS 181555Z 20012KT 19/10 A298 RMK A01 T01850097  RH  058%=      5-min Rain = 0
KARS 181600Z 20012KT 19/10 A298 RMK A01 T01890099  RH  058%=      5-min Rain = 0
KARS 181605Z 20012KT 19/10 A2979 RMK A01 T01910099  RH  057%=      5-min Rain = 0
KARS 181610Z 20012KT 20/10 A2979 RMK A01 T01980102  RH  056%=      5-min Rain = 0
KARS 181615Z 21012KT 20/10 A2979 RMK A01 T02040102  RH  054%=      5-min Rain = 0
KARS 181620Z 21012KT 20/10 A2979 RMK A01 T01960099  RH  055%=      5-min Rain = 0
KARS 181625Z 21013KT 20/10 A2979 RMK A01 T02010101  RH  054%=      5-min Rain = 0
KARS 181630Z 21014KT 20/10 A2979 RMK A01 T02020102  RH  054%=      5-min Rain = 0
KARS 181635Z 21014KT 21/10 A2979 RMK A01 T02140104  RH  051%=      5-min Rain = 0
KARS 181640Z 22012G17KT 22/10 A2978 RMK A01 T02170104  RH  051%=      5-min Rain = 0
KARS 181645Z 21012G17KT 21/10 A2978 RMK A01 T02130103  RH  051%=      5-min Rain = 0
KARS 181650Z 22014KT 22/10 A2978 RMK A01 T02170104  RH  050%=      5-min Rain = 0
KARS 181655Z 21014KT 22/11 A2978 RMK A01 T02210106  RH  050%=      5-min Rain = 0
KARS 181700Z 22013G18KT 22/11 A2978 RMK A01 T02230106  RH  049%=      5-min Rain = 0
KARS 181705Z 22012KT 22/11 A2978 RMK A01 T02230106  RH  049%=      5-min Rain = 0
KARS 181710Z 22012G17KT 22/11 A2978 RMK A01 T02230106  RH  049%=      5-min Rain = 0
KARS 181715Z 21013KT 23/11 A2977 RMK A01 T02270109  RH  049%=      5-min Rain = 0
KARS 181720Z 22012G17KT 23/11 A2977 RMK A01 T02310109  RH  048%=      5-min Rain = 0
KARS 181725Z 22014G20KT 23/11 A2977 RMK A01 T02340110  RH  047%=      5-min Rain = 0
KARS 181730Z 22015KT 24/11 A2977 RMK A01 T02370109  RH  046%=      5-min Rain = 0
KARS 181735Z 22014KT 24/11 A2976 RMK A01 T02390111  RH  046%=      5-min Rain = 0
KARS 181740Z 22015G20KT 24/11 A2976 RMK A01 T02440112  RH  045%=      5-min Rain = 0
KARS 181745Z 22014G19KT 25/11 A2975 RMK A01 T02470112  RH  044%=      5-min Rain = 0
KARS 181750Z 22016KT 25/11 A2975 RMK A01 T02450111  RH  045%=      5-min Rain = 0
KARS 181755Z 22014KT 25/11 A2975 RMK A01 T02490114  RH  044%=      5-min Rain = 0
KARS 181800Z 22014G20KT 25/12 A2975 RMK A01 T02540115  RH  043%=      5-min Rain = 0
KARS 181805Z 22015G20KT 25/11 A2975 RMK A01 T02530113  RH  043%=      5-min Rain = 0
KARS 181810Z 22015G21KT 26/12 A2974 RMK A01 T02570115  RH  043%=      5-min Rain = 0
KARS 181815Z 22015G20KT 26/11 A2974 RMK A01 T02560114  RH  042%=      5-min Rain = 0
KARS 181820Z 21016G24KT 26/11 A2973 RMK A01 T02570114  RH  042%=      5-min Rain = 0
KARS 181825Z 22016G21KT 26/11 A2973 RMK A01 T02600114  RH  042%=      5-min Rain = 0
KARS 181830Z 23016G25KT 26/11 A2973 RMK A01 T02600113  RH  041%=      5-min Rain = 0
KARS 181835Z 22016KT 26/11 A2972 RMK A01 T02630114  RH  041%=      5-min Rain = 0
KARS 181840Z 23015G20KT 27/11 A2972 RMK A01 T02660114  RH  040%=      5-min Rain = 0
KARS 181845Z 22016G21KT 27/12 A2972 RMK A01 T02690115  RH  040%=      5-min Rain = 0
KARS 181850Z 21014G19KT 27/12 A2971 RMK A01 T02740117  RH  039%=      5-min Rain = 0
KARS 181855Z 22013G18KT 27/12 A2971 RMK A01 T02730116  RH  039%=      5-min Rain = 0
KARS 181900Z 23012G19KT 28/12 A297 RMK A01 T02750116  RH  038%=      5-min Rain = 0
KARS 181905Z 22015G22KT 28/12 A297 RMK A01 T02820116  RH  037%=      5-min Rain = 0
KARS 181910Z 23016KT 28/11 A2969 RMK A01 T02840113  RH  036%=      5-min Rain = 0
KARS 181915Z 22015G22KT 28/11 A2969 RMK A01 T02840114  RH  036%=      5-min Rain = 0
KARS 181920Z 21016G23KT 29/11 A2969 RMK A01 T02890113  RH  035%=      5-min Rain = 0
KARS 181925Z 22013G20KT 28/11 A2968 RMK A01 T02810107  RH  035%=      5-min Rain = 0
KARS 181930Z 22017G24KT 29/10 A2968 RMK A01 T02910104  RH  032%=      5-min Rain = 0
KARS 181935Z 22017G22KT 29/10 A2968 RMK A01 T02930101  RH  031%=      5-min Rain = 0
KARS 181940Z 22016G21KT 29/10 A2967 RMK A01 T02940097  RH  030%=      5-min Rain = 0
KARS 181945Z 25014G21KT 29/10 A2967 RMK A01 T02880100  RH  032%=      5-min Rain = 0
KARS 181950Z 25017G22KT 29/10 A2967 RMK A01 T02930102  RH  032%=      5-min Rain = 0
KARS 181955Z 24017G22KT 29/10 A2967 RMK A01 T02940101  RH  031%=      5-min Rain = 0
KARS 182000Z 22016G40KT 30/09 A2966 RMK A01 T02960085  RH  028%=      5-min Rain = 0
KARS 182005Z 23018G25KT 30/08 A2966 RMK A01 T02980079  RH  026%=      5-min Rain = 0
KARS 182010Z 23015G20KT 30/09 A2966 RMK A01 T02980086  RH  028%=      5-min Rain = 0
KARS 182015Z 21019G24KT 30/09 A2966 RMK A01 T02950088  RH  028%=      5-min Rain = 0
KARS 182020Z 22015KT 28/09 A2966 RMK A01 T02820085  RH  030%=      5-min Rain = 0
KARS 182025Z 24016G25KT 29/08 A2965 RMK A01 T02870084  RH  029%=      5-min Rain = 0
KARS 182030Z 22018G26KT 30/08 A2965 RMK A01 T02960079  RH  026%=      5-min Rain = 0
KARS 182035Z 21020G26KT 30/08 A2965 RMK A01 T02950075  RH  026%=      5-min Rain = 0
KARS 182040Z 22018G25KT 30/07 A2965 RMK A01 T02950072  RH  025%=      5-min Rain = 0
KARS 182045Z 23015G21KT 29/07 A2965 RMK A01 T02930068  RH  025%=      5-min Rain = 0
KARS 182050Z 24014G22KT 29/07 A2964 RMK A01 T02940066  RH  024%=      5-min Rain = 0
KARS 182055Z 23020G27KT 30/06 A2964 RMK A01 T02970058  RH  023%=      5-min Rain = 0
KARS 182100Z 24018G25KT 29/06 A2965 RMK A01 T02930055  RH  023%=      5-min Rain = 0
KARS 182105Z 24018G25KT 29/05 A2964 RMK A01 T02940053  RH  022%=      5-min Rain = 0
KARS 182110Z 23017KT 30/06 A2965 RMK A01 T02960056  RH  022%=      5-min Rain = 0
KARS 182115Z 25019G24KT 29/06 A2964 RMK A01 T02930056  RH  023%=      5-min Rain = 0
KARS 182120Z 24018G23KT 29/06 A2964 RMK A01 T02930062  RH  024%=      5-min Rain = 0
KARS 182125Z 25019G25KT 29/06 A2964 RMK A01 T02920059  RH  023%=      5-min Rain = 0
KARS 182130Z 24016G22KT 29/06 A2965 RMK A01 T02910059  RH  024%=      5-min Rain = 0
KARS 182135Z 23016G26KT 29/07 A2965 RMK A01 T02940068  RH  025%=      5-min Rain = 0
KARS 182140Z 24018G23KT 29/07 A2965 RMK A01 T02920070  RH  025%=      5-min Rain = 0
KARS 182145Z 24016G21KT 29/07 A2965 RMK A01 T02900067  RH  025%=      5-min Rain = 0
KARS 182150Z 24019KT 29/07 A2965 RMK A01 T02900068  RH  025%=      5-min Rain = 0
KARS 182155Z 23018KT 29/07 A2965 RMK A01 T02880066  RH  025%=      5-min Rain = 0
KARS 182200Z 24016KT 29/08 A2965 RMK A01 T02880075  RH  027%=      5-min Rain = 0
KARS 182205Z 24014KT 29/08 A2965 RMK A01 T02890079  RH  028%=      5-min Rain = 0
KARS 182210Z 25018KT 29/07 A2965 RMK A01 T02870074  RH  027%=      5-min Rain = 0
KARS 182215Z 23017G22KT 29/07 A2965 RMK A01 T02860070  RH  026%=      5-min Rain = 0
KARS 182220Z 24014G19KT 29/07 A2965 RMK A01 T02880069  RH  026%=      5-min Rain = 0
KARS 182225Z 25017G23KT 29/07 A2965 RMK A01 T02860068  RH  026%=      5-min Rain = 0
KARS 182230Z 25013KT 28/07 A2965 RMK A01 T02830068  RH  026%=      5-min Rain = 0
KARS 182235Z 25015KT 29/07 A2965 RMK A01 T02850071  RH  027%=      5-min Rain = 0
KARS 182240Z 24014KT 29/08 A2965 RMK A01 T02850077  RH  028%=      5-min Rain = 0
KARS 182245Z 24014G20KT 28/08 A2965 RMK A01 T02750075  RH  029%=      5-min Rain = 0
KARS 182250Z 24012KT 28/08 A2965 RMK A01 T02750077  RH  029%=      5-min Rain = 0
KARS 182255Z 24014KT 28/08 A2965 RMK A01 T02800077  RH  029%=      5-min Rain = 0
KARS 182300Z 24015KT 28/08 A2965 RMK A01 T02790076  RH  028%=      5-min Rain = 0
KARS 182305Z 24017G23KT 28/08 A2965 RMK A01 T02780075  RH  028%=      5-min Rain = 0
KARS 182310Z 24015KT 28/07 A2965 RMK A01 T02770074  RH  028%=      5-min Rain = 0
KARS 182315Z 24014KT 28/07 A2965 RMK A01 T02750074  RH  029%=      5-min Rain = 0
KARS 182320Z 24013KT 27/07 A2965 RMK A01 T02740074  RH  029%=      5-min Rain = 0
KARS 182325Z 24013G18KT 27/08 A2965 RMK A01 T02730075  RH  029%=      5-min Rain = 0
KARS 182330Z 25014KT 27/07 A2966 RMK A01 T02680072  RH  030%=      5-min Rain = 0
KARS 182335Z 25012KT 27/07 A2966 RMK A01 T02670071  RH  030%=      5-min Rain = 0
KARS 182340Z 26012KT 26/07 A2966 RMK A01 T02620071  RH  030%=      5-min Rain = 0
KARS 182345Z 25010KT 26/07 A2966 RMK A01 T02580070  RH  031%=      5-min Rain = 0
KARS 182350Z 25009KT 25/07 A2966 RMK A01 T02520070  RH  032%=      5-min Rain = 0
KARS 182355Z 25008KT 25/07 A2966 RMK A01 T02480071  RH  033%=      5-min Rain = 0
KARS 190000Z 25008KT 24/07 A2966 RMK A01 T02430071  RH  034%=      5-min Rain = 0
KARS 190005Z 24007KT 24/07 A2966 RMK A01 T02380072  RH  035%=      5-min Rain = 0
KARS 190010Z 24007KT 23/07 A2966 RMK A01 T02310073  RH  037%=      5-min Rain = 0
KARS 190015Z 24007KT 22/07 A2966 RMK A01 T02240074  RH  039%=      5-min Rain = 0
KARS 190020Z 24007KT 22/07 A2966 RMK A01 T02200074  RH  040%=      5-min Rain = 0
KARS 190025Z 24007KT 22/08 A2966 RMK A01 T02150075  RH  041%=      5-min Rain = 0
KARS 190030Z 24007KT 21/08 A2966 RMK A01 T02130076  RH  042%=      5-min Rain = 0
KARS 190035Z 25008KT 22/08 A2966 RMK A01 T02160076  RH  042%=      5-min Rain = 0
KARS 190040Z 25008KT 22/08 A2967 RMK A01 T02180077  RH  041%=      5-min Rain = 0
KARS 190045Z 25007KT 22/08 A2967 RMK A01 T02150078  RH  042%=      5-min Rain = 0
KARS 190050Z 26009KT 22/08 A2967 RMK A01 T02180077  RH  041%=      5-min Rain = 0
KARS 190055Z 26008KT 22/08 A2967 RMK A01 T02220077  RH  040%=      5-min Rain = 0
KARS 190100Z 26007KT 22/08 A2967 RMK A01 T02180078  RH  042%=      5-min Rain = 0
KARS 190105Z 26008G19KT 21/08 A2968 RMK A01 T02140079  RH  043%=      5-min Rain = 0
KARS 190110Z 29020G29KT 22/07 A297 RMK A01 T02220074  RH  040%=      5-min Rain = 0
KARS 190115Z 31020G26KT 22/08 A297 RMK A01 T02180077  RH  042%=      5-min Rain = 0
KARS 190120Z 31019G24KT 21/08 A297 RMK A01 T02090081  RH  045%=      5-min Rain = 0
KARS 190125Z 31016G22KT 20/08 A2971 RMK A01 T02030084  RH  047%=      5-min Rain = 0
KARS 190130Z 32014G20KT 20/08 A2971 RMK A01 T01990084  RH  049%=      5-min Rain = 0
KARS 190135Z 31013G18KT 20/09 A2971 RMK A01 T01960085  RH  050%=      5-min Rain = 0
KARS 190140Z 31012G17KT 19/09 A2971 RMK A01 T01920085  RH  051%=      5-min Rain = 0
KARS 190145Z 31012KT 19/08 A2971 RMK A01 T01920083  RH  051%=      5-min Rain = 0
KARS 190150Z 31011KT 19/08 A2972 RMK A01 T01910082  RH  051%=      5-min Rain = 0
KARS 190155Z 31009KT 19/08 A2971 RMK A01 T01870082  RH  052%=      5-min Rain = 0
KARS 190200Z 31008KT 19/08 A2972 RMK A01 T01850082  RH  053%=      5-min Rain = 0
KARS 190205Z 31007KT 18/08 A2972 RMK A01 T01820082  RH  053%=      5-min Rain = 0
KARS 190210Z 27007KT 18/08 A2972 RMK A01 T01770083  RH  055%=      5-min Rain = 0
KARS 190215Z 27009KT 17/08 A2973 RMK A01 T01710083  RH  058%=      5-min Rain = 0
KARS 190220Z 29010KT 18/08 A2973 RMK A01 T01760084  RH  056%=      5-min Rain = 0
KARS 190225Z 27009KT 18/08 A2973 RMK A01 T01780084  RH  056%=      5-min Rain = 0
KARS 190230Z 24008KT 17/08 A2974 RMK A01 T01730082  RH  057%=      5-min Rain = 0
KARS 190235Z 24012KT 17/08 A2974 RMK A01 T01700082  RH  058%=      5-min Rain = 0
KARS 190240Z 23012KT 17/08 A2975 RMK A01 T01710082  RH  057%=      5-min Rain = 0
KARS 190245Z 23010KT 17/08 A2975 RMK A01 T01700081  RH  057%=      5-min Rain = 0
KARS 190250Z 24009KT 17/08 A2975 RMK A01 T01690079  RH  057%=      5-min Rain = 0
KARS 190255Z 24009KT 17/08 A2975 RMK A01 T01680075  RH  056%=      5-min Rain = 0
KARS 190300Z 24008KT 17/07 A2974 RMK A01 T01680072  RH  055%=      5-min Rain = 0
KARS 190305Z 23007KT 17/07 A2974 RMK A01 T01660070  RH  054%=      5-min Rain = 0
KARS 190310Z 23008KT 16/07 A2974 RMK A01 T01630069  RH  055%=      5-min Rain = 0
KARS 190315Z 23009KT 16/07 A2974 RMK A01 T01610068  RH  055%=      5-min Rain = 0
KARS 190320Z 23007KT 16/07 A2974 RMK A01 T01610068  RH  055%=      5-min Rain = 0
KARS 190325Z 23007KT 16/07 A2974 RMK A01 T01590067  RH  056%=      5-min Rain = 0
KARS 190330Z 23007KT 16/07 A2974 RMK A01 T01560066  RH  057%=      5-min Rain = 0
KARS 190335Z 24006KT 15/07 A2974 RMK A01 T01540066  RH  057%=      5-min Rain = 0
KARS 190340Z 24008KT 15/07 A2975 RMK A01 T01500067  RH  059%=      5-min Rain = 0
KARS 190345Z 25007KT 15/07 A2975 RMK A01 T01510066  RH  058%=      5-min Rain = 0
KARS 190350Z 25008KT 15/07 A2975 RMK A01 T01490066  RH  059%=      5-min Rain = 0
KARS 190355Z 25008KT 15/07 A2975 RMK A01 T01500066  RH  058%=      5-min Rain = 0
KARS 190400Z 26008KT 15/07 A2975 RMK A01 T01510065  RH  058%=      5-min Rain = 0
KARS 190405Z 26007KT 15/07 A2976 RMK A01 T01500065  RH  058%=      5-min Rain = 0
KARS 190410Z 26009KT 15/06 A2976 RMK A01 T01520063  RH  057%=      5-min Rain = 0
KARS 190415Z 26010KT 16/06 A2976 RMK A01 T01560062  RH  055%=      5-min Rain = 0
KARS 190420Z 26010KT 16/06 A2976 RMK A01 T01580062  RH  054%=      5-min Rain = 0
KARS 190425Z 25010KT 16/06 A2976 RMK A01 T01560060  RH  054%=      5-min Rain = 0
KARS 190430Z 25010KT 16/06 A2976 RMK A01 T01580059  RH  053%=      5-min Rain = 0
KARS 190435Z 25009KT 16/06 A2976 RMK A01 T01570058  RH  053%=      5-min Rain = 0
KARS 190440Z 25009KT 16/06 A2976 RMK A01 T01550058  RH  054%=      5-min Rain = 0
KARS 190445Z 25009KT 15/06 A2976 RMK A01 T01530058  RH  054%=      5-min Rain = 0
KARS 190450Z 25010KT 15/06 A2976 RMK A01 T01530057  RH  054%=      5-min Rain = 0
KARS 190455Z 26010KT 16/06 A2976 RMK A01 T01550057  RH  053%=      5-min Rain = 0

Page generated in 0.0094 seconds.